createdAt,value
2019-05-16T00:00:04.055Z,34.60
2019-05-16T00:02:37.705Z,37.33
2019-05-16T00:05:09.711Z,33.33
2019-05-16T00:07:40.701Z,29.50
2019-05-16T00:10:13.947Z,32.70
2019-05-16T00:12:45.203Z,35.05
2019-05-16T00:15:18.176Z,40.73
2019-05-16T00:17:49.527Z,34.23
2019-05-16T00:20:20.612Z,34.60
2019-05-16T00:22:51.480Z,33.10
2019-05-16T00:25:23.082Z,27.85
2019-05-16T00:27:54.080Z,30.45
2019-05-16T00:30:25.160Z,32.00
2019-05-16T00:32:58.529Z,27.55
2019-05-16T00:35:29.360Z,27.87
2019-05-16T00:38:00.555Z,29.05
2019-05-16T00:40:31.746Z,30.20
2019-05-16T00:43:03.068Z,34.07
2019-05-16T00:45:34.130Z,31.87
2019-05-16T00:48:05.257Z,37.78
2019-05-16T00:50:36.324Z,31.85
2019-05-16T00:53:09.188Z,30.15
2019-05-16T00:55:41.134Z,37.15
2019-05-16T00:58:13.670Z,38.63
2019-05-16T01:00:50.438Z,35.17
2019-05-16T01:03:22.023Z,33.83
2019-05-16T01:05:53.257Z,35.20
2019-05-16T01:08:24.642Z,33.92
2019-05-16T01:10:55.940Z,33.78
2019-05-16T01:13:27.855Z,36.38
2019-05-16T01:15:59.221Z,33.58
2019-05-16T01:18:30.267Z,35.33
2019-05-16T01:21:01.298Z,34.18
2019-05-16T01:23:32.372Z,36.13
2019-05-16T01:26:03.629Z,42.83
2019-05-16T01:28:34.838Z,48.23
2019-05-16T01:31:08.417Z,43.07
2019-05-16T01:33:39.413Z,47.90
2019-05-16T01:36:10.486Z,50.15
2019-05-16T01:38:41.637Z,44.20
2019-05-16T01:41:12.692Z,50.55
2019-05-16T01:43:43.777Z,37.28
2019-05-16T01:46:14.953Z,37.80
2019-05-16T01:48:48.260Z,42.93
2019-05-16T01:51:18.818Z,38.88
2019-05-16T01:53:49.920Z,35.78
2019-05-16T01:56:20.990Z,39.53
2019-05-16T01:58:52.171Z,31.12
2019-05-16T02:01:23.219Z,44.00
2019-05-16T02:03:54.577Z,37.48
2019-05-16T02:06:28.658Z,38.35
2019-05-16T02:08:58.909Z,38.50
2019-05-16T02:11:30.089Z,39.27
2019-05-16T02:14:01.237Z,42.95
2019-05-16T02:16:32.309Z,45.83
2019-05-16T02:19:03.356Z,45.70
2019-05-16T02:21:34.574Z,32.88
2019-05-16T02:24:05.785Z,38.73
2019-05-16T02:26:38.631Z,42.78
2019-05-16T02:29:13.607Z,35.73
2019-05-16T02:31:42.897Z,37.23
2019-05-16T02:34:13.977Z,34.40
2019-05-16T02:36:45.329Z,37.67
2019-05-16T02:39:16.407Z,55.52
2019-05-16T02:41:47.508Z,46.23
2019-05-16T02:44:20.795Z,48.40
2019-05-16T02:46:51.468Z,45.48
2019-05-16T02:49:25.932Z,43.85
2019-05-16T02:51:57.378Z,43.70
2019-05-16T02:54:31.657Z,44.25
2019-05-16T02:57:01.701Z,44.18
2019-05-16T02:59:32.872Z,36.38
2019-05-16T03:02:04.193Z,43.55
2019-05-16T03:04:39.808Z,47.62
2019-05-16T03:07:13.449Z,48.25
2019-05-16T03:09:44.181Z,47.90
2019-05-16T03:12:16.226Z,48.40
2019-05-16T03:14:54.455Z,47.38
2019-05-16T03:17:31.614Z,50.25
2019-05-16T03:20:02.534Z,43.05
2019-05-16T03:22:33.655Z,48.37
2019-05-16T03:25:06.299Z,47.13
2019-05-16T03:27:37.413Z,56.65
2019-05-16T03:30:14.407Z,44.55
2019-05-16T03:32:44.684Z,62.60
2019-05-16T03:35:16.089Z,49.53
2019-05-16T03:37:55.680Z,44.88
2019-05-16T03:40:31.112Z,48.17
2019-05-16T03:43:01.683Z,38.80
2019-05-16T03:45:33.231Z,37.90
2019-05-16T03:48:04.455Z,37.75
2019-05-16T03:50:35.518Z,48.70
2019-05-16T03:53:06.545Z,44.88
2019-05-16T03:55:40.471Z,37.33
2019-05-16T03:58:11.748Z,30.48
2019-05-16T04:00:54.476Z,30.37
2019-05-16T04:03:28.544Z,51.73
2019-05-16T04:06:00.809Z,34.63
2019-05-16T04:08:31.352Z,50.00
2019-05-16T04:11:02.657Z,44.90
2019-05-16T04:13:34.148Z,37.87
2019-05-16T04:16:05.221Z,56.70
2019-05-16T04:18:36.371Z,41.02
2019-05-16T04:21:07.417Z,53.45
2019-05-16T04:23:41.664Z,46.30
2019-05-16T04:26:11.516Z,50.20
2019-05-16T04:28:42.574Z,39.30
2019-05-16T04:31:13.722Z,42.40
2019-05-16T04:33:44.857Z,47.53
2019-05-16T04:36:16.014Z,34.60
2019-05-16T04:38:47.162Z,46.10
2019-05-16T04:41:21.154Z,38.55
2019-05-16T04:43:51.039Z,44.45
2019-05-16T04:46:22.155Z,47.43
2019-05-16T04:48:53.039Z,43.17
2019-05-16T04:51:23.895Z,35.70
2019-05-16T04:53:54.932Z,42.43
2019-05-16T04:56:26.095Z,34.83
2019-05-16T04:59:00.375Z,40.88
2019-05-16T05:01:30.775Z,48.78
2019-05-16T05:04:10.778Z,44.25
2019-05-16T05:06:35.412Z,42.23
2019-05-16T05:09:07.695Z,50.43
2019-05-16T05:11:41.313Z,43.83
2019-05-16T05:14:11.710Z,46.30
2019-05-16T05:16:43.346Z,45.67
2019-05-16T05:19:14.306Z,41.00
2019-05-16T05:21:45.605Z,38.35
2019-05-16T05:24:16.712Z,41.42
2019-05-16T05:26:50.220Z,51.27
2019-05-16T05:29:20.702Z,43.48
2019-05-16T05:31:55.047Z,39.70
2019-05-16T05:34:24.574Z,43.78
2019-05-16T05:36:55.710Z,39.38
2019-05-16T05:39:27.668Z,36.25
2019-05-16T05:42:00.030Z,31.17
2019-05-16T05:44:31.330Z,43.00
2019-05-16T05:47:02.486Z,39.23
2019-05-16T05:49:33.734Z,35.17
2019-05-16T05:52:04.920Z,36.77
2019-05-16T05:54:36.264Z,47.95
2019-05-16T05:57:09.817Z,43.40
2019-05-16T05:59:40.548Z,42.25
2019-05-16T06:02:12.022Z,47.78
2019-05-16T06:04:43.016Z,39.42
2019-05-16T06:07:14.134Z,45.63
2019-05-16T06:09:53.537Z,39.83
2019-05-16T06:12:21.057Z,49.10
2019-05-16T06:14:51.259Z,46.13
2019-05-16T06:17:25.352Z,47.83
2019-05-16T06:19:56.452Z,51.88
2019-05-16T06:22:29.651Z,47.25
2019-05-16T06:25:01.154Z,55.03
2019-05-16T06:27:32.447Z,43.70
2019-05-16T06:30:03.881Z,39.40
2019-05-16T06:32:34.981Z,38.83
2019-05-16T06:35:09.906Z,44.63
2019-05-16T06:37:41.102Z,43.83
2019-05-16T06:40:13.064Z,45.55
2019-05-16T06:42:44.146Z,41.90
2019-05-16T06:45:15.456Z,44.33
2019-05-16T06:47:46.518Z,45.52
2019-05-16T06:50:20.620Z,47.43
2019-05-16T06:52:50.576Z,42.98
2019-05-16T06:55:21.768Z,41.80
2019-05-16T06:57:53.022Z,42.53
2019-05-16T07:00:25.821Z,42.80
2019-05-16T07:02:56.947Z,32.75
2019-05-16T07:05:29.974Z,36.25
2019-05-16T07:08:01.096Z,33.55
2019-05-16T07:10:33.449Z,30.23
2019-05-16T07:13:04.666Z,33.28
2019-05-16T07:15:35.712Z,32.73
2019-05-16T07:18:06.689Z,28.80
2019-05-16T07:20:39.927Z,25.50
2019-05-16T07:23:10.853Z,28.92
2019-05-16T07:25:42.895Z,28.38
2019-05-16T07:28:14.033Z,27.67
2019-05-16T07:30:46.362Z,27.50
2019-05-16T07:33:17.341Z,27.32
2019-05-16T07:35:50.888Z,25.52
2019-05-16T07:38:21.393Z,26.60
2019-05-16T07:40:52.583Z,25.85
2019-05-16T07:43:23.687Z,25.10
2019-05-16T07:45:54.689Z,27.80
2019-05-16T07:48:25.817Z,24.47
2019-05-16T07:50:56.701Z,27.95
2019-05-16T07:53:27.615Z,22.87
2019-05-16T07:56:00.119Z,24.05
2019-05-16T07:58:31.566Z,22.15
2019-05-16T08:01:07.842Z,25.90
2019-05-16T08:03:35.569Z,25.32
2019-05-16T08:06:07.097Z,17.98
2019-05-16T08:08:40.367Z,17.50
2019-05-16T08:11:12.222Z,17.98
2019-05-16T08:13:44.268Z,14.87
2019-05-16T08:16:15.646Z,16.35
2019-05-16T08:18:50.007Z,18.77
2019-05-16T08:21:22.119Z,23.20
2019-05-16T08:23:53.176Z,22.37
2019-05-16T08:26:24.189Z,16.67
2019-05-16T08:28:55.118Z,23.00
2019-05-16T08:31:26.046Z,18.48
2019-05-16T08:33:56.989Z,18.30
2019-05-16T08:36:30.727Z,20.50
2019-05-16T08:39:02.416Z,18.90
2019-05-16T08:41:33.389Z,21.65
2019-05-16T08:44:05.118Z,19.17
2019-05-16T08:46:41.165Z,18.27
2019-05-16T08:49:12.309Z,20.60
2019-05-16T08:51:43.000Z,17.70
2019-05-16T08:54:14.326Z,18.90
2019-05-16T08:56:45.414Z,16.97
2019-05-16T08:59:16.623Z,21.80
2019-05-16T09:01:56.709Z,16.37
2019-05-16T09:04:24.624Z,19.87
2019-05-16T09:06:53.738Z,20.37
2019-05-16T09:09:41.677Z,20.57
2019-05-16T09:11:58.220Z,19.95
2019-05-16T09:14:35.155Z,19.45
2019-05-16T09:17:01.966Z,19.07
2019-05-16T09:19:33.038Z,19.00
2019-05-16T09:22:07.239Z,21.77
2019-05-16T09:24:37.791Z,21.77
2019-05-16T09:27:12.389Z,20.77
2019-05-16T09:29:42.018Z,18.17
2019-05-16T09:32:21.064Z,15.98
2019-05-16T09:34:47.914Z,18.57
2019-05-16T09:37:19.358Z,18.42
2019-05-16T09:39:50.816Z,16.80
2019-05-16T09:42:21.910Z,17.25
2019-05-16T09:44:53.499Z,18.05
2019-05-16T09:47:27.931Z,20.32
2019-05-16T09:49:58.122Z,20.77
2019-05-16T09:52:30.939Z,20.35
2019-05-16T09:55:02.407Z,17.45
2019-05-16T09:57:33.814Z,20.90
2019-05-16T10:00:08.247Z,24.02
2019-05-16T10:02:39.305Z,24.07
2019-05-16T10:05:13.504Z,22.17
2019-05-16T10:07:47.047Z,18.82
2019-05-16T10:10:17.740Z,16.60
2019-05-16T10:12:49.084Z,18.80
2019-05-16T10:15:20.674Z,19.10
2019-05-16T10:17:52.030Z,20.85
2019-05-16T10:20:23.201Z,20.68
2019-05-16T10:22:57.694Z,23.18
2019-05-16T10:25:27.925Z,19.02
2019-05-16T10:27:58.827Z,22.67
2019-05-16T10:30:30.456Z,18.67
2019-05-16T10:33:01.678Z,22.32
2019-05-16T10:35:32.696Z,23.35
2019-05-16T10:38:03.678Z,24.12
2019-05-16T10:40:36.894Z,23.62
2019-05-16T10:43:07.794Z,20.32
2019-05-16T10:45:38.971Z,22.93
2019-05-16T10:48:10.162Z,17.67
2019-05-16T10:50:41.313Z,22.35
2019-05-16T10:53:32.434Z,19.80
2019-05-16T10:55:47.601Z,23.45
2019-05-16T10:58:35.405Z,20.17
2019-05-16T11:03:24.557Z,17.02
2019-05-16T11:06:02.980Z,22.30
2019-05-16T11:08:28.739Z,19.55
2019-05-16T11:11:00.148Z,20.27
2019-05-16T11:13:31.612Z,25.17
2019-05-16T11:16:02.614Z,20.92
2019-05-16T11:18:33.818Z,18.85
2019-05-16T11:21:04.785Z,20.43
2019-05-16T11:23:36.707Z,20.80
2019-05-16T11:26:08.271Z,17.55
2019-05-16T11:28:39.543Z,16.77
2019-05-16T11:31:10.569Z,19.85
2019-05-16T11:33:41.796Z,16.52
2019-05-16T11:36:13.225Z,18.42
2019-05-16T11:38:47.250Z,17.02
2019-05-16T11:41:17.640Z,17.32
2019-05-16T11:43:48.984Z,16.77
2019-05-16T11:46:20.083Z,38.53
2019-05-16T11:48:51.253Z,25.32
2019-05-16T11:51:22.312Z,17.00
2019-05-16T11:53:53.602Z,17.90
2019-05-16T11:56:24.866Z,18.42
2019-05-16T11:58:57.057Z,23.18
2019-05-16T12:01:28.396Z,20.48
2019-05-16T12:04:00.017Z,22.32
2019-05-16T12:06:31.255Z,24.23
2019-05-16T12:09:02.232Z,23.10
2019-05-16T12:11:33.375Z,24.75
2019-05-16T12:14:04.412Z,24.60
2019-05-16T12:16:37.902Z,23.27
2019-05-16T12:19:09.064Z,22.80
2019-05-16T12:21:40.084Z,26.00
2019-05-16T12:24:11.437Z,26.90
2019-05-16T12:26:43.137Z,26.93
2019-05-16T12:29:17.146Z,25.70
2019-05-16T12:31:57.843Z,27.27
2019-05-16T12:34:20.217Z,26.40
2019-05-16T12:36:51.580Z,28.98
2019-05-16T12:39:23.096Z,24.07
2019-05-16T12:41:58.523Z,25.05
2019-05-16T12:44:27.040Z,22.22
2019-05-16T12:46:58.477Z,23.62
2019-05-16T12:49:29.625Z,23.55
2019-05-16T12:52:00.863Z,26.37
2019-05-16T12:54:32.102Z,25.05
2019-05-16T12:57:03.610Z,26.70
2019-05-16T12:59:36.669Z,26.15
2019-05-16T13:02:07.695Z,24.07
2019-05-16T13:04:39.217Z,21.65
2019-05-16T13:07:10.315Z,23.65
2019-05-16T13:09:41.358Z,24.70
2019-05-16T13:12:13.895Z,23.02
2019-05-16T13:14:45.023Z,23.20
2019-05-16T13:17:16.709Z,24.65
2019-05-16T13:19:48.373Z,22.70
2019-05-16T13:22:19.743Z,23.18
2019-05-16T13:24:51.109Z,23.80
2019-05-16T13:27:23.735Z,20.43
2019-05-16T13:29:57.892Z,26.07
2019-05-16T13:32:28.021Z,27.58
2019-05-16T13:34:59.411Z,25.12
2019-05-16T13:37:30.880Z,30.60
2019-05-16T13:40:02.614Z,28.75
2019-05-16T13:42:33.896Z,31.15
2019-05-16T13:45:07.173Z,31.93
2019-05-16T13:47:38.362Z,28.75
2019-05-16T13:50:12.299Z,30.48
2019-05-16T13:52:43.069Z,26.42
2019-05-16T13:55:16.752Z,22.60
2019-05-16T13:57:48.047Z,26.10
2019-05-16T14:00:20.181Z,32.03
2019-05-16T14:02:51.634Z,33.45
2019-05-16T14:05:22.890Z,42.62
2019-05-16T14:07:57.281Z,37.45
2019-05-16T14:10:29.687Z,34.25
2019-05-16T14:13:02.015Z,31.37
2019-05-16T14:15:33.147Z,35.23
2019-05-16T14:18:04.335Z,36.25
2019-05-16T14:20:37.908Z,31.57
2019-05-16T14:23:09.028Z,31.85
2019-05-16T14:25:40.171Z,29.90
2019-05-16T14:28:12.110Z,30.40
2019-05-16T14:30:46.809Z,34.08
2019-05-16T14:33:17.417Z,31.60
2019-05-16T14:35:48.473Z,33.00
2019-05-16T14:38:19.725Z,40.10
2019-05-16T14:40:50.965Z,44.38
2019-05-16T14:43:23.004Z,35.03
2019-05-16T14:45:54.314Z,37.15
2019-05-16T14:48:27.891Z,34.40
2019-05-16T14:50:58.623Z,35.15
2019-05-16T14:53:30.037Z,30.15
2019-05-16T14:56:01.399Z,38.02
2019-05-16T14:58:32.731Z,35.83
2019-05-16T15:01:03.946Z,32.00
2019-05-16T15:03:36.605Z,36.17
2019-05-16T15:06:08.786Z,37.40
2019-05-16T15:08:39.900Z,32.25
2019-05-16T15:11:12.772Z,30.35
2019-05-16T15:13:43.911Z,37.20
2019-05-16T15:16:17.047Z,37.23
2019-05-16T15:18:48.852Z,30.57
2019-05-16T15:21:19.954Z,28.80
2019-05-16T15:23:51.118Z,32.83
2019-05-16T15:26:23.324Z,33.02
2019-05-16T15:28:54.653Z,35.30
2019-05-16T15:31:25.747Z,39.90
2019-05-16T15:33:57.248Z,36.30
2019-05-16T15:36:28.639Z,35.63
2019-05-16T15:39:00.143Z,31.48
2019-05-16T15:41:33.052Z,30.05
2019-05-16T15:44:07.554Z,32.45
2019-05-16T15:46:39.176Z,32.45
2019-05-16T15:49:10.575Z,35.03
2019-05-16T15:51:43.153Z,31.75
2019-05-16T15:54:18.778Z,31.42
2019-05-16T15:56:51.746Z,33.08
2019-05-16T15:59:22.944Z,33.70
2019-05-16T16:01:53.858Z,32.67
2019-05-16T16:04:27.069Z,33.95
2019-05-16T16:06:57.847Z,26.52
2019-05-16T16:09:29.210Z,28.62
2019-05-16T16:12:02.011Z,28.77
2019-05-16T16:14:33.455Z,26.87
2019-05-16T16:17:06.617Z,28.87
2019-05-16T16:19:37.590Z,32.15
2019-05-16T16:22:09.308Z,30.27
2019-05-16T16:24:40.567Z,28.50
2019-05-16T16:27:12.059Z,29.02
2019-05-16T16:29:42.957Z,28.65
2019-05-16T16:32:17.207Z,28.87
2019-05-16T16:34:48.933Z,27.02
2019-05-16T16:37:20.132Z,35.75
2019-05-16T16:39:51.050Z,31.45
2019-05-16T16:42:22.403Z,30.45
2019-05-16T16:44:53.591Z,29.80
2019-05-16T16:47:26.916Z,31.55
2019-05-16T16:49:59.290Z,39.35
2019-05-16T16:52:30.625Z,35.30
2019-05-16T16:55:01.783Z,31.90
2019-05-16T16:57:32.924Z,31.57
2019-05-16T17:00:07.514Z,31.65
2019-05-16T17:02:38.617Z,32.08
2019-05-16T17:05:13.092Z,28.92
2019-05-16T17:07:44.059Z,38.67
2019-05-16T17:10:17.608Z,32.15
2019-05-16T17:12:48.681Z,31.25
2019-05-16T17:15:20.280Z,37.45
2019-05-16T17:17:51.368Z,35.38
2019-05-16T17:20:24.229Z,26.48
2019-05-16T17:22:57.221Z,25.08
2019-05-16T17:25:28.229Z,34.13
2019-05-16T17:27:59.768Z,33.05
2019-05-16T17:30:30.891Z,31.95
2019-05-16T17:33:02.443Z,28.23
2019-05-16T17:35:33.688Z,27.15
2019-05-16T17:38:06.693Z,28.98
2019-05-16T17:40:38.689Z,29.18
2019-05-16T17:43:09.898Z,25.62
2019-05-16T17:45:41.153Z,26.27
2019-05-16T17:48:12.476Z,23.75
2019-05-16T17:50:43.688Z,27.65
2019-05-16T17:53:17.316Z,30.35
2019-05-16T17:55:48.015Z,34.15
2019-05-16T17:58:19.215Z,35.70
2019-05-16T18:00:50.701Z,40.23
2019-05-16T18:03:21.907Z,39.40
2019-05-16T18:05:53.168Z,46.98
2019-05-16T18:08:24.423Z,42.62
2019-05-16T18:10:56.494Z,46.35
2019-05-16T18:13:28.030Z,45.30
2019-05-16T18:15:59.163Z,37.17
2019-05-16T18:18:30.166Z,31.85
2019-05-16T18:21:02.368Z,47.25
2019-05-16T18:23:33.742Z,57.75
2019-05-16T18:26:07.436Z,49.42
2019-05-16T18:28:38.119Z,40.90
2019-05-16T18:31:09.653Z,42.95
2019-05-16T18:33:40.852Z,40.33
2019-05-16T18:36:12.075Z,38.00
2019-05-16T18:38:43.328Z,34.45
2019-05-16T18:41:16.491Z,33.23
2019-05-16T18:43:48.236Z,31.40
2019-05-16T18:46:19.670Z,38.15
2019-05-16T18:48:50.736Z,47.27
2019-05-16T18:51:21.744Z,43.10
2019-05-16T18:53:53.448Z,42.27
2019-05-16T18:56:27.045Z,44.03
2019-05-16T18:58:57.739Z,43.45
2019-05-16T19:01:28.816Z,43.23
2019-05-16T19:03:59.821Z,42.05
2019-05-16T19:06:31.519Z,43.42
2019-05-16T19:09:02.613Z,42.15
2019-05-16T19:11:33.608Z,46.85
2019-05-16T19:14:07.424Z,56.35
2019-05-16T19:16:37.935Z,52.45
2019-05-16T19:19:10.576Z,59.67
2019-05-16T19:21:41.725Z,48.52
2019-05-16T19:24:12.763Z,48.08
2019-05-16T19:26:43.978Z,48.23
2019-05-16T19:29:17.185Z,48.73
2019-05-16T19:31:50.470Z,47.45
2019-05-16T19:34:21.009Z,61.10
2019-05-16T19:36:52.276Z,53.63
2019-05-16T19:39:23.535Z,58.68
2019-05-16T19:41:57.101Z,57.75
2019-05-16T19:44:27.650Z,51.48
2019-05-16T19:46:58.791Z,47.83
2019-05-16T19:49:29.898Z,61.95
2019-05-16T19:52:01.030Z,62.17
2019-05-16T19:54:32.264Z,69.45
2019-05-16T19:57:03.340Z,70.95
2019-05-16T19:59:36.579Z,72.00
2019-05-16T20:02:10.125Z,72.55
2019-05-16T20:04:41.388Z,70.72
2019-05-16T20:07:12.764Z,67.37
2019-05-16T20:09:43.873Z,63.83
2019-05-16T20:12:16.882Z,65.05
2019-05-16T20:14:47.914Z,63.42
2019-05-16T20:17:19.444Z,59.98
2019-05-16T20:19:50.705Z,57.08
2019-05-16T20:22:23.250Z,58.42
2019-05-16T20:24:56.171Z,53.55
2019-05-16T20:27:27.537Z,58.10
2019-05-16T20:29:59.413Z,65.05
2019-05-16T20:32:32.054Z,54.00
2019-05-16T20:35:03.106Z,52.98
2019-05-16T20:37:36.674Z,54.27
2019-05-16T20:40:09.897Z,54.10
2019-05-16T20:42:41.428Z,53.30
2019-05-16T20:45:12.884Z,74.55
2019-05-16T20:47:44.889Z,73.62
2019-05-16T20:50:16.949Z,65.60
2019-05-16T20:52:48.695Z,55.52
2019-05-16T20:55:20.155Z,59.50
2019-05-16T20:57:51.298Z,59.42
2019-05-16T21:00:22.851Z,52.70
2019-05-16T21:02:53.914Z,56.33
2019-05-16T21:05:26.808Z,52.48
2019-05-16T21:07:58.147Z,63.48
2019-05-16T21:10:29.264Z,51.35
2019-05-16T21:13:02.636Z,55.92
2019-05-16T21:15:33.688Z,54.80
2019-05-16T21:18:07.325Z,65.87
2019-05-16T21:20:38.962Z,67.25
2019-05-16T21:23:10.477Z,55.43
2019-05-16T21:25:41.725Z,58.83
2019-05-16T21:28:12.764Z,57.45
2019-05-16T21:30:43.910Z,56.48
2019-05-16T21:33:16.536Z,60.83
2019-05-16T21:35:48.191Z,59.70
2019-05-16T21:38:19.603Z,57.48
2019-05-16T21:40:50.613Z,52.65
2019-05-16T21:43:21.770Z,57.20
2019-05-16T21:45:53.014Z,53.68
2019-05-16T21:48:24.324Z,54.00
2019-05-16T21:50:57.034Z,59.67
2019-05-16T21:53:30.099Z,50.23
2019-05-16T21:56:00.999Z,50.35
2019-05-16T21:58:32.107Z,47.43
2019-05-16T22:01:06.989Z,51.98
2019-05-16T22:03:38.113Z,58.48
2019-05-16T22:06:09.356Z,57.15
2019-05-16T22:08:40.494Z,59.55
2019-05-16T22:11:11.733Z,57.58
2019-05-16T22:13:43.147Z,55.92
2019-05-16T22:16:17.354Z,55.45
2019-05-16T22:18:47.580Z,54.58
2019-05-16T22:21:18.857Z,54.50
2019-05-16T22:23:49.959Z,55.05
2019-05-16T22:26:21.611Z,58.50
2019-05-16T22:28:52.824Z,45.25
2019-05-16T22:31:24.081Z,45.03
2019-05-16T22:33:55.198Z,51.35
2019-05-16T22:36:26.668Z,51.55
2019-05-16T22:38:59.686Z,55.08
2019-05-16T22:41:30.833Z,60.23
2019-05-16T22:44:01.778Z,51.98
2019-05-16T22:46:33.120Z,56.85
2019-05-16T22:49:07.636Z,60.45
2019-05-16T22:51:39.229Z,58.90
2019-05-16T22:54:10.439Z,50.67
2019-05-16T22:56:41.989Z,56.88
2019-05-16T22:59:13.146Z,53.20
2019-05-16T23:01:44.315Z,55.58
2019-05-16T23:04:16.828Z,54.25
2019-05-16T23:06:48.217Z,52.62
2019-05-16T23:09:19.321Z,59.60
2019-05-16T23:11:50.502Z,46.88
2019-05-16T23:14:21.548Z,57.15
2019-05-16T23:16:52.879Z,56.77
2019-05-16T23:19:26.385Z,54.05
2019-05-16T23:21:57.479Z,47.85
2019-05-16T23:24:29.839Z,40.45
2019-05-16T23:27:01.949Z,51.10
2019-05-16T23:29:33.101Z,42.95
2019-05-16T23:32:04.204Z,43.40
2019-05-16T23:34:37.366Z,42.58
2019-05-16T23:37:08.195Z,38.83
2019-05-16T23:39:39.490Z,40.58
2019-05-16T23:42:10.918Z,40.55
2019-05-16T23:44:42.171Z,40.58
2019-05-16T23:47:13.605Z,35.10
2019-05-16T23:49:47.145Z,35.90
2019-05-16T23:52:18.834Z,34.95
2019-05-16T23:54:51.591Z,30.08
2019-05-16T23:57:22.442Z,35.55
2019-05-16T23:59:53.453Z,39.95
